sensor_id;sensor_type;location;lat;lon;timestamp;pressure;altitude;pressure_sealevel;temperature;humidity
6433;BME280;3249;42.690;23.260;2024-03-25T00:00:26;93016.16;;;2.84;100.00
6433;BME280;3249;42.690;23.260;2024-03-25T00:02:53;93020.88;;;2.81;100.00
6433;BME280;3249;42.690;23.260;2024-03-25T00:05:19;93015.97;;;2.79;100.00
6433;BME280;3249;42.690;23.260;2024-03-25T00:07:46;93002.50;;;2.72;100.00
6433;BME280;3249;42.690;23.260;2024-03-25T00:10:12;93006.38;;;2.81;100.00
6433;BME280;3249;42.690;23.260;2024-03-25T00:12:39;92994.31;;;2.77;100.00
6433;BME280;3249;42.690;23.260;2024-03-25T00:15:09;92991.13;;;2.94;100.00
6433;BME280;3249;42.690;23.260;2024-03-25T00:17:36;92991.09;;;3.01;100.00
6433;BME280;3249;42.690;23.260;2024-03-25T00:20:03;92985.56;;;3.04;100.00
6433;BME280;3249;42.690;23.260;2024-03-25T00:22:29;92992.00;;;3.13;100.00
6433;BME280;3249;42.690;23.260;2024-03-25T00:24:56;92979.47;;;3.18;100.00
6433;BME280;3249;42.690;23.260;2024-03-25T00:27:22;92980.41;;;3.23;100.00
6433;BME280;3249;42.690;23.260;2024-03-25T00:29:48;92970.59;;;3.27;100.00
6433;BME280;3249;42.690;23.260;2024-03-25T00:32:18;92973.75;;;3.29;100.00
6433;BME280;3249;42.690;23.260;2024-03-25T00:34:44;92966.69;;;3.31;100.00
6433;BME280;3249;42.690;23.260;2024-03-25T00:37:11;92959.84;;;3.31;100.00
6433;BME280;3249;42.690;23.260;2024-03-25T00:39:37;92965.47;;;3.40;100.00
6433;BME280;3249;42.690;23.260;2024-03-25T00:42:04;92968.72;;;3.47;100.00
6433;BME280;3249;42.690;23.260;2024-03-25T00:44:30;92967.94;;;3.53;100.00
6433;BME280;3249;42.690;23.260;2024-03-25T00:46:57;92970.25;;;3.54;100.00
6433;BME280;3249;42.690;23.260;2024-03-25T00:49:26;92970.25;;;3.54;100.00
6433;BME280;3249;42.690;23.260;2024-03-25T00:51:53;92978.91;;;3.47;100.00
6433;BME280;3249;42.690;23.260;2024-03-25T00:54:19;92969.16;;;3.44;100.00
6433;BME280;3249;42.690;23.260;2024-03-25T00:56:45;92966.63;;;3.37;100.00
6433;BME280;3249;42.690;23.260;2024-03-25T00:59:12;92958.59;;;3.40;100.00
6433;BME280;3249;42.690;23.260;2024-03-25T01:01:39;92958.03;;;3.38;100.00
6433;BME280;3249;42.690;23.260;2024-03-25T01:04:05;92950.56;;;3.43;100.00
6433;BME280;3249;42.690;23.260;2024-03-25T01:06:34;92941.94;;;3.44;100.00
6433;BME280;3249;42.690;23.260;2024-03-25T01:09:01;92935.06;;;3.51;100.00
6433;BME280;3249;42.690;23.260;2024-03-25T01:11:27;92925.44;;;3.60;100.00
6433;BME280;3249;42.690;23.260;2024-03-25T01:13:54;92915.47;;;3.58;100.00
6433;BME280;3249;42.690;23.260;2024-03-25T01:16:20;92914.41;;;3.66;100.00
6433;BME280;3249;42.690;23.260;2024-03-25T01:18:47;92915.13;;;3.73;100.00
6433;BME280;3249;42.690;23.260;2024-03-25T01:21:13;92909.19;;;3.79;100.00
6433;BME280;3249;42.690;23.260;2024-03-25T01:23:42;92910.78;;;3.80;100.00
6433;BME280;3249;42.690;23.260;2024-03-25T01:26:09;92912.34;;;3.81;100.00
6433;BME280;3249;42.690;23.260;2024-03-25T01:28:36;92913.69;;;3.83;100.00
6433;BME280;3249;42.690;23.260;2024-03-25T01:31:02;92917.56;;;3.86;100.00
6433;BME280;3249;42.690;23.260;2024-03-25T01:33:29;92920.69;;;3.88;100.00
6433;BME280;3249;42.690;23.260;2024-03-25T01:35:55;92926.72;;;3.93;100.00
6433;BME280;3249;42.690;23.260;2024-03-25T01:38:22;92932.16;;;3.97;100.00
6433;BME280;3249;42.690;23.260;2024-03-25T01:40:51;92944.81;;;4.03;100.00
6433;BME280;3249;42.690;23.260;2024-03-25T01:43:18;92895.59;;;3.67;100.00
6433;BME280;3249;42.690;23.260;2024-03-25T01:45:44;92919.28;;;3.92;100.00
6433;BME280;3249;42.690;23.260;2024-03-25T01:48:11;92887.03;;;3.61;100.00
6433;BME280;3249;42.690;23.260;2024-03-25T01:50:40;92931.13;;;3.80;100.00
6433;BME280;3249;42.690;23.260;2024-03-25T01:53:08;92937.69;;;3.38;100.00
6433;BME280;3249;42.690;23.260;2024-03-25T01:55:36;92940.53;;;3.24;100.00
6433;BME280;3249;42.690;23.260;2024-03-25T01:58:11;92945.97;;;3.27;100.00
6433;BME280;3249;42.690;23.260;2024-03-25T02:00:38;92943.75;;;3.06;100.00
6433;BME280;3249;42.690;23.260;2024-03-25T02:03:05;92958.09;;;2.88;100.00
6433;BME280;3249;42.690;23.260;2024-03-25T02:05:34;92916.25;;;2.40;100.00
6433;BME280;3249;42.690;23.260;2024-03-25T02:08:01;92962.44;;;2.81;100.00
6433;BME280;3249;42.690;23.260;2024-03-25T02:10:29;92964.91;;;2.94;100.00
6433;BME280;3249;42.690;23.260;2024-03-25T02:12:55;92964.09;;;3.00;100.00
6433;BME280;3249;42.690;23.260;2024-03-25T02:15:25;92965.47;;;3.02;100.00
6433;BME280;3249;42.690;23.260;2024-03-25T02:17:52;92959.19;;;3.05;100.00
6433;BME280;3249;42.690;23.260;2024-03-25T02:20:18;92917.25;;;2.89;100.00
6433;BME280;3249;42.690;23.260;2024-03-25T02:22:45;92960.13;;;3.17;100.00
6433;BME280;3249;42.690;23.260;2024-03-25T02:25:14;92948.56;;;3.21;100.00
6433;BME280;3249;42.690;23.260;2024-03-25T02:27:45;92951.03;;;3.34;100.00
6433;BME280;3249;42.690;23.260;2024-03-25T02:30:12;92958.03;;;3.38;100.00
6433;BME280;3249;42.690;23.260;2024-03-25T02:32:39;92961.19;;;3.34;100.00
6433;BME280;3249;42.690;23.260;2024-03-25T02:35:08;92951.06;;;3.27;100.00
6433;BME280;3249;42.690;23.260;2024-03-25T02:37:37;92940.53;;;3.17;100.00
6433;BME280;3249;42.690;23.260;2024-03-25T02:40:06;92961.22;;;3.27;100.00
6433;BME280;3249;42.690;23.260;2024-03-25T02:42:35;92957.91;;;3.27;100.00
6433;BME280;3249;42.690;23.260;2024-03-25T02:45:05;92953.41;;;3.29;100.00
6433;BME280;3249;42.690;23.260;2024-03-25T02:47:32;92962.41;;;3.25;100.00
6433;BME280;3249;42.690;23.260;2024-03-25T02:49:58;92962.03;;;3.28;100.00
6433;BME280;3249;42.690;23.260;2024-03-25T02:52:25;92966.56;;;3.19;100.00
6433;BME280;3249;42.690;23.260;2024-03-25T02:54:52;92986.69;;;3.21;100.00
6433;BME280;3249;42.690;23.260;2024-03-25T02:57:18;92975.13;;;3.25;100.00
6433;BME280;3249;42.690;23.260;2024-03-25T02:59:45;92990.53;;;3.30;100.00
6433;BME280;3249;42.690;23.260;2024-03-25T03:02:14;92994.09;;;3.29;100.00
6433;BME280;3249;42.690;23.260;2024-03-25T03:04:40;92985.09;;;3.20;100.00
6433;BME280;3249;42.690;23.260;2024-03-25T03:07:07;92982.78;;;3.18;100.00
6433;BME280;3249;42.690;23.260;2024-03-25T03:09:33;92985.09;;;3.20;100.00
6433;BME280;3249;42.690;23.260;2024-03-25T03:12:00;92989.78;;;3.23;100.00
6433;BME280;3249;42.690;23.260;2024-03-25T03:14:26;92994.13;;;3.22;100.00
6433;BME280;3249;42.690;23.260;2024-03-25T03:16:53;92985.34;;;3.18;100.00
6433;BME280;3249;42.690;23.260;2024-03-25T03:19:22;92987.84;;;3.25;100.00
6433;BME280;3249;42.690;23.260;2024-03-25T03:21:49;92978.88;;;3.22;100.00
6433;BME280;3249;42.690;23.260;2024-03-25T03:24:15;92995.63;;;3.30;100.00
6433;BME280;3249;42.690;23.260;2024-03-25T03:26:42;92998.97;;;3.30;100.00
6433;BME280;3249;42.690;23.260;2024-03-25T03:29:08;93009.69;;;3.32;100.00
6433;BME280;3249;42.690;23.260;2024-03-25T03:31:35;93017.31;;;3.32;100.00
6433;BME280;3249;42.690;23.260;2024-03-25T03:34:02;93013.22;;;3.31;100.00
6433;BME280;3249;42.690;23.260;2024-03-25T03:36:31;93016.34;;;3.33;100.00
6433;BME280;3249;42.690;23.260;2024-03-25T03:38:57;93011.25;;;3.33;100.00
6433;BME280;3249;42.690;23.260;2024-03-25T03:41:24;93006.97;;;3.34;100.00
6433;BME280;3249;42.690;23.260;2024-03-25T03:43:50;93019.06;;;3.38;100.00
6433;BME280;3249;42.690;23.260;2024-03-25T03:46:17;93020.41;;;3.41;100.00
6433;BME280;3249;42.690;23.260;2024-03-25T03:48:43;93029.97;;;3.45;100.00
6433;BME280;3249;42.690;23.260;2024-03-25T03:51:10;93025.28;;;3.49;100.00
6433;BME280;3249;42.690;23.260;2024-03-25T03:53:39;93022.09;;;3.53;100.00
6433;BME280;3249;42.690;23.260;2024-03-25T03:56:06;93017.97;;;3.59;100.00
6433;BME280;3249;42.690;23.260;2024-03-25T03:58:33;93030.69;;;3.59;100.00
6433;BME280;3249;42.690;23.260;2024-03-25T04:01:00;93032.66;;;3.57;100.00
6433;BME280;3249;42.690;23.260;2024-03-25T04:03:27;93047.91;;;3.57;100.00
6433;BME280;3249;42.690;23.260;2024-03-25T04:05:54;93054.19;;;3.54;100.00
6433;BME280;3249;42.690;23.260;2024-03-25T04:08:20;93056.38;;;3.44;100.00
6433;BME280;3249;42.690;23.260;2024-03-25T04:10:49;93060.13;;;3.42;100.00
6433;BME280;3249;42.690;23.260;2024-03-25T04:13:16;93049.94;;;3.42;100.00
6433;BME280;3249;42.690;23.260;2024-03-25T04:15:43;93048.22;;;3.36;100.00
6433;BME280;3249;42.690;23.260;2024-03-25T04:18:09;93047.63;;;3.34;100.00
6433;BME280;3249;42.690;23.260;2024-03-25T04:20:36;93049.63;;;3.32;100.00
6433;BME280;3249;42.690;23.260;2024-03-25T04:23:03;93068.19;;;3.32;100.00
6433;BME280;3249;42.690;23.260;2024-03-25T04:25:30;93063.13;;;3.26;100.00
6433;BME280;3249;42.690;23.260;2024-03-25T04:28:00;93067.03;;;3.22;100.00
6433;BME280;3249;42.690;23.260;2024-03-25T04:30:26;93061.16;;;3.21;100.00
6433;BME280;3249;42.690;23.260;2024-03-25T04:32:53;93073.31;;;3.19;100.00
6433;BME280;3249;42.690;23.260;2024-03-25T04:35:19;93080.94;;;3.19;100.00
6433;BME280;3249;42.690;23.260;2024-03-25T04:37:46;93089.94;;;3.15;100.00
6433;BME280;3249;42.690;23.260;2024-03-25T04:40:12;93101.09;;;3.21;100.00
6433;BME280;3249;42.690;23.260;2024-03-25T04:42:40;93109.50;;;3.15;100.00
6433;BME280;3249;42.690;23.260;2024-03-25T04:45:09;93082.38;;;3.02;100.00
6433;BME280;3249;42.690;23.260;2024-03-25T04:47:36;93126.50;;;3.21;100.00
6433;BME280;3249;42.690;23.260;2024-03-25T04:50:02;93119.28;;;3.18;100.00
6433;BME280;3249;42.690;23.260;2024-03-25T04:52:29;93125.34;;;3.17;100.00
6433;BME280;3249;42.690;23.260;2024-03-25T04:54:56;93124.72;;;3.21;100.00
6433;BME280;3249;42.690;23.260;2024-03-25T04:57:23;93125.31;;;3.23;100.00
6433;BME280;3249;42.690;23.260;2024-03-25T04:59:50;93132.94;;;3.23;100.00
6433;BME280;3249;42.690;23.260;2024-03-25T05:02:19;93130.97;;;3.32;100.00
6433;BME280;3249;42.690;23.260;2024-03-25T05:04:45;93123.31;;;3.38;100.00
6433;BME280;3249;42.690;23.260;2024-03-25T05:07:12;93131.31;;;3.42;100.00
6433;BME280;3249;42.690;23.260;2024-03-25T05:09:40;93128.59;;;3.43;100.00
6433;BME280;3249;42.690;23.260;2024-03-25T05:12:07;93133.06;;;3.41;100.00
6433;BME280;3249;42.690;23.260;2024-03-25T05:14:34;93125.84;;;3.45;100.00
6433;BME280;3249;42.690;23.260;2024-03-25T05:17:00;93129.75;;;3.47;100.00
6433;BME280;3249;42.690;23.260;2024-03-25T05:19:30;93121.91;;;3.49;100.00
6433;BME280;3249;42.690;23.260;2024-03-25T05:21:57;93130.72;;;3.46;100.00
6433;BME280;3249;42.690;23.260;2024-03-25T05:24:24;93135.63;;;3.48;100.00
6433;BME280;3249;42.690;23.260;2024-03-25T05:26:50;93142.25;;;3.49;100.00
6433;BME280;3249;42.690;23.260;2024-03-25T05:29:17;93137.75;;;3.51;100.00
6433;BME280;3249;42.690;23.260;2024-03-25T05:32:00;93092.53;;;3.02;100.00
6433;BME280;3249;42.690;23.260;2024-03-25T05:34:30;93128.84;;;3.29;100.00
6433;BME280;3249;42.690;23.260;2024-03-25T05:36:57;93143.84;;;3.43;100.00
6433;BME280;3249;42.690;23.260;2024-03-25T05:39:23;93164.56;;;3.47;100.00
6433;BME280;3249;42.690;23.260;2024-03-25T05:41:50;93161.81;;;3.48;100.00
6433;BME280;3249;42.690;23.260;2024-03-25T05:44:19;93177.88;;;3.42;100.00
6433;BME280;3249;42.690;23.260;2024-03-25T05:46:46;93182.72;;;3.57;100.00
6433;BME280;3249;42.690;23.260;2024-03-25T05:49:14;93188.38;;;3.59;100.00
6433;BME280;3249;42.690;23.260;2024-03-25T05:51:43;93192.66;;;3.71;100.00
6433;BME280;3249;42.690;23.260;2024-03-25T05:54:10;93182.13;;;3.68;100.00
6433;BME280;3249;42.690;23.260;2024-03-25T05:56:36;93187.72;;;3.83;100.00
6433;BME280;3249;42.690;23.260;2024-03-25T05:59:03;93194.94;;;3.86;100.00
6433;BME280;3249;42.690;23.260;2024-03-25T06:01:31;93204.34;;;3.92;100.00
6433;BME280;3249;42.690;23.260;2024-03-25T06:03:59;93203.81;;;3.77;100.00
6433;BME280;3249;42.690;23.260;2024-03-25T06:06:25;93187.97;;;3.68;100.00
6433;BME280;3249;42.690;23.260;2024-03-25T06:08:54;93194.78;;;3.81;100.00
6433;BME280;3249;42.690;23.260;2024-03-25T06:11:21;93191.50;;;3.67;100.00
6433;BME280;3249;42.690;23.260;2024-03-25T06:13:48;93154.81;;;3.44;100.00
6433;BME280;3249;42.690;23.260;2024-03-25T06:16:14;93213.38;;;3.75;100.00
6433;BME280;3249;42.690;23.260;2024-03-25T06:18:41;93223.53;;;3.81;100.00
6433;BME280;3249;42.690;23.260;2024-03-25T06:21:08;93219.19;;;3.95;100.00
6433;BME280;3249;42.690;23.260;2024-03-25T06:23:34;93208.28;;;3.81;100.00
6433;BME280;3249;42.690;23.260;2024-03-25T06:26:05;93233.44;;;4.09;100.00
6433;BME280;3249;42.690;23.260;2024-03-25T06:28:31;93233.97;;;4.24;100.00
6433;BME280;3249;42.690;23.260;2024-03-25T06:30:58;93245.47;;;4.33;100.00
6433;BME280;3249;42.690;23.260;2024-03-25T06:33:39;93240.50;;;4.51;100.00
6433;BME280;3249;42.690;23.260;2024-03-25T06:36:21;93242.06;;;4.83;100.00
6433;BME280;3249;42.690;23.260;2024-03-25T06:38:48;93243.34;;;4.92;100.00
6433;BME280;3249;42.690;23.260;2024-03-25T06:41:18;93254.75;;;4.89;100.00
6433;BME280;3249;42.690;23.260;2024-03-25T06:43:44;93251.16;;;4.97;100.00
6433;BME280;3249;42.690;23.260;2024-03-25T06:46:11;93257.91;;;4.85;100.00
6433;BME280;3249;42.690;23.260;2024-03-25T06:48:38;93258.59;;;4.67;100.00
6433;BME280;3249;42.690;23.260;2024-03-25T06:51:05;93256.50;;;4.58;100.00
6433;BME280;3249;42.690;23.260;2024-03-25T06:53:32;93253.38;;;4.56;100.00
6433;BME280;3249;42.690;23.260;2024-03-25T06:55:59;93257.13;;;4.53;100.00
6433;BME280;3249;42.690;23.260;2024-03-25T06:58:28;93269.19;;;4.71;100.00
6433;BME280;3249;42.690;23.260;2024-03-25T07:00:56;93249.09;;;4.50;100.00
6433;BME280;3249;42.690;23.260;2024-03-25T07:03:23;93263.56;;;4.56;100.00
6433;BME280;3249;42.690;23.260;2024-03-25T07:05:51;93231.16;;;4.38;100.00
6433;BME280;3249;42.690;23.260;2024-03-25T07:08:19;93266.88;;;4.63;100.00
6433;BME280;3249;42.690;23.260;2024-03-25T07:10:46;93264.41;;;4.81;100.00
6433;BME280;3249;42.690;23.260;2024-03-25T07:13:12;93274.19;;;5.08;100.00
6433;BME280;3249;42.690;23.260;2024-03-25T07:15:42;93282.09;;;5.07;100.00
6433;BME280;3249;42.690;23.260;2024-03-25T07:18:09;93267.09;;;4.86;100.00
6433;BME280;3249;42.690;23.260;2024-03-25T07:20:36;93291.34;;;5.02;100.00
6433;BME280;3249;42.690;23.260;2024-03-25T07:23:04;93298.53;;;5.11;100.00
6433;BME280;3249;42.690;23.260;2024-03-25T07:25:30;93295.09;;;4.99;100.00
6433;BME280;3249;42.690;23.260;2024-03-25T07:27:57;93303.63;;;5.11;100.00
6433;BME280;3249;42.690;23.260;2024-03-25T07:30:23;93296.41;;;5.33;100.00
6433;BME280;3249;42.690;23.260;2024-03-25T07:32:53;93300.31;;;5.35;100.00
6433;BME280;3249;42.690;23.260;2024-03-25T07:35:19;93295.91;;;5.42;100.00
6433;BME280;3249;42.690;23.260;2024-03-25T07:37:46;93303.81;;;5.41;100.00
6433;BME280;3249;42.690;23.260;2024-03-25T07:40:12;93308.00;;;5.53;100.00
6433;BME280;3249;42.690;23.260;2024-03-25T07:42:39;93300.66;;;5.63;100.00
6433;BME280;3249;42.690;23.260;2024-03-25T07:45:06;93295.84;;;5.55;100.00
6433;BME280;3249;42.690;23.260;2024-03-25T07:47:35;93285.56;;;5.37;100.00
6433;BME280;3249;42.690;23.260;2024-03-25T07:50:05;93305.41;;;5.84;100.00
6433;BME280;3249;42.690;23.260;2024-03-25T07:52:32;93262.72;;;5.67;100.00
6433;BME280;3249;42.690;23.260;2024-03-25T07:55:02;93314.28;;;6.00;100.00
6433;BME280;3249;42.690;23.260;2024-03-25T07:57:29;93312.88;;;5.86;100.00
6433;BME280;3249;42.690;23.260;2024-03-25T07:59:56;93321.81;;;5.95;100.00
6433;BME280;3249;42.690;23.260;2024-03-25T08:02:22;93324.88;;;6.03;100.00
6433;BME280;3249;42.690;23.260;2024-03-25T08:04:51;93318.75;;;6.04;100.00
6433;BME280;3249;42.690;23.260;2024-03-25T08:07:20;93320.63;;;6.15;100.00
6433;BME280;3249;42.690;23.260;2024-03-25T08:09:46;93318.34;;;6.25;100.00
6433;BME280;3249;42.690;23.260;2024-03-25T08:12:16;93325.63;;;6.40;100.00
6433;BME280;3249;42.690;23.260;2024-03-25T08:14:42;93331.03;;;6.50;96.56
6433;BME280;3249;42.690;23.260;2024-03-25T08:17:09;93325.84;;;6.56;95.59
6433;BME280;3249;42.690;23.260;2024-03-25T08:19:36;93347.59;;;6.95;96.00
6433;BME280;3249;42.690;23.260;2024-03-25T08:22:03;93342.09;;;6.80;89.69
6433;BME280;3249;42.690;23.260;2024-03-25T08:24:32;93347.91;;;6.87;92.55
6433;BME280;3249;42.690;23.260;2024-03-25T08:26:59;93350.41;;;6.75;90.64
6433;BME280;3249;42.690;23.260;2024-03-25T08:29:25;93351.53;;;6.61;91.17
6433;BME280;3249;42.690;23.260;2024-03-25T08:31:51;93360.78;;;6.62;88.00
6433;BME280;3249;42.690;23.260;2024-03-25T08:34:18;93352.03;;;6.70;90.78
6433;BME280;3249;42.690;23.260;2024-03-25T08:36:44;93361.09;;;7.02;90.98
6433;BME280;3249;42.690;23.260;2024-03-25T08:39:11;93367.50;;;7.22;89.48
6433;BME280;3249;42.690;23.260;2024-03-25T08:41:41;93367.81;;;7.14;82.87
6433;BME280;3249;42.690;23.260;2024-03-25T08:44:07;93364.13;;;7.10;83.50
6433;BME280;3249;42.690;23.260;2024-03-25T08:46:34;93365.38;;;7.19;83.61
6433;BME280;3249;42.690;23.260;2024-03-25T08:49:00;93364.16;;;7.22;85.76
6433;BME280;3249;42.690;23.260;2024-03-25T08:51:27;93369.63;;;7.25;84.57
6433;BME280;3249;42.690;23.260;2024-03-25T08:53:53;93365.56;;;7.36;82.97
6433;BME280;3249;42.690;23.260;2024-03-25T08:56:20;93346.56;;;7.14;81.85
6433;BME280;3249;42.690;23.260;2024-03-25T08:58:49;93368.69;;;7.49;83.64
6433;BME280;3249;42.690;23.260;2024-03-25T09:01:15;93371.81;;;7.51;80.89
6433;BME280;3249;42.690;23.260;2024-03-25T09:03:42;93366.69;;;7.40;79.46
6433;BME280;3249;42.690;23.260;2024-03-25T09:06:08;93363.94;;;7.23;78.87
6433;BME280;3249;42.690;23.260;2024-03-25T09:08:34;93366.00;;;7.44;78.86
6433;BME280;3249;42.690;23.260;2024-03-25T09:11:01;93371.94;;;7.56;82.61
6433;BME280;3249;42.690;23.260;2024-03-25T09:13:31;93377.56;;;7.47;78.70
6433;BME280;3249;42.690;23.260;2024-03-25T09:16:00;93372.78;;;7.39;76.94
6433;BME280;3249;42.690;23.260;2024-03-25T09:18:26;93373.00;;;7.37;80.44
6433;BME280;3249;42.690;23.260;2024-03-25T09:20:53;93373.63;;;7.62;79.64
6433;BME280;3249;42.690;23.260;2024-03-25T09:23:20;93356.84;;;7.25;77.04
6433;BME280;3249;42.690;23.260;2024-03-25T09:25:53;93378.03;;;7.44;80.21
6433;BME280;3249;42.690;23.260;2024-03-25T09:28:20;93382.56;;;7.30;79.27
6433;BME280;3249;42.690;23.260;2024-03-25T09:30:48;93382.59;;;7.12;78.81
6433;BME280;3249;42.690;23.260;2024-03-25T09:33:17;93391.69;;;7.08;79.54
6433;BME280;3249;42.690;23.260;2024-03-25T09:35:43;93393.00;;;7.29;78.94
6433;BME280;3249;42.690;23.260;2024-03-25T09:38:10;93383.38;;;7.13;76.64
6433;BME280;3249;42.690;23.260;2024-03-25T09:40:39;93388.06;;;7.16;74.64
6433;BME280;3249;42.690;23.260;2024-03-25T09:43:09;93386.13;;;7.29;76.98
6433;BME280;3249;42.690;23.260;2024-03-25T09:45:40;93388.22;;;7.32;78.57
6433;BME280;3249;42.690;23.260;2024-03-25T09:48:07;93357.28;;;7.22;76.78
6433;BME280;3249;42.690;23.260;2024-03-25T09:50:36;93377.56;;;7.47;78.41
6433;BME280;3249;42.690;23.260;2024-03-25T09:53:05;93382.78;;;7.29;75.84
6433;BME280;3249;42.690;23.260;2024-03-25T09:55:31;93387.19;;;7.51;74.80
6433;BME280;3249;42.690;23.260;2024-03-25T09:57:58;93391.66;;;7.67;75.35
6433;BME280;3249;42.690;23.260;2024-03-25T10:00:26;93388.78;;;7.75;73.28
6433;BME280;3249;42.690;23.260;2024-03-25T10:02:52;93345.09;;;7.47;71.36
6433;BME280;3249;42.690;23.260;2024-03-25T10:05:20;93388.13;;;7.80;69.18
6433;BME280;3249;42.690;23.260;2024-03-25T10:07:49;93383.34;;;7.83;68.11
6433;BME280;3249;42.690;23.260;2024-03-25T10:10:19;93391.72;;;8.13;67.47
6433;BME280;3249;42.690;23.260;2024-03-25T10:12:46;93393.09;;;8.27;69.60
6433;BME280;3249;42.690;23.260;2024-03-25T10:15:15;93393.19;;;8.21;62.33
6433;BME280;3249;42.690;23.260;2024-03-25T10:17:42;93392.50;;;8.14;60.38
6433;BME280;3249;42.690;23.260;2024-03-25T10:20:13;93386.59;;;8.13;61.63
6433;BME280;3249;42.690;23.260;2024-03-25T10:22:43;93391.44;;;8.21;58.00
6433;BME280;3249;42.690;23.260;2024-03-25T10:25:22;93398.66;;;8.24;55.95
6433;BME280;3249;42.690;23.260;2024-03-25T10:27:56;93388.88;;;8.21;53.83
6433;BME280;3249;42.690;23.260;2024-03-25T10:30:24;93373.25;;;8.23;52.21
6433;BME280;3249;42.690;23.260;2024-03-25T10:33:00;93402.03;;;8.36;50.78
6433;BME280;3249;42.690;23.260;2024-03-25T10:35:28;93396.38;;;8.16;51.32
6433;BME280;3249;42.690;23.260;2024-03-25T10:37:59;93379.78;;;8.07;50.61
6433;BME280;3249;42.690;23.260;2024-03-25T10:40:32;93391.44;;;8.21;50.03
6433;BME280;3249;42.690;23.260;2024-03-25T10:43:01;93400.34;;;8.30;50.30
6433;BME280;3249;42.690;23.260;2024-03-25T10:45:33;93387.84;;;8.34;50.11
6433;BME280;3249;42.690;23.260;2024-03-25T10:48:03;93389.53;;;8.40;52.30
6433;BME280;3249;42.690;23.260;2024-03-25T10:50:30;93389.56;;;8.79;47.91
6433;BME280;3249;42.690;23.260;2024-03-25T10:52:57;93355.22;;;8.69;47.60
6433;BME280;3249;42.690;23.260;2024-03-25T10:55:29;93393.09;;;8.27;47.34
6433;BME280;3249;42.690;23.260;2024-03-25T10:57:56;93401.34;;;8.29;46.91
6433;BME280;3249;42.690;23.260;2024-03-25T11:00:23;93391.91;;;7.77;50.95
6433;BME280;3249;42.690;23.260;2024-03-25T11:02:50;93391.38;;;7.98;50.57
6433;BME280;3249;42.690;23.260;2024-03-25T11:05:17;93391.06;;;8.06;47.65
6433;BME280;3249;42.690;23.260;2024-03-25T11:07:44;93388.47;;;7.83;49.74
6433;BME280;3249;42.690;23.260;2024-03-25T11:10:11;93394.16;;;8.08;51.97
6433;BME280;3249;42.690;23.260;2024-03-25T11:12:41;93390.09;;;8.30;55.48
6433;BME280;3249;42.690;23.260;2024-03-25T11:15:09;93344.47;;;8.09;56.77
6433;BME280;3249;42.690;23.260;2024-03-25T11:17:35;93385.03;;;8.12;52.91
6433;BME280;3249;42.690;23.260;2024-03-25T11:20:14;93400.19;;;8.02;56.69
6433;BME280;3249;42.690;23.260;2024-03-25T11:22:48;93402.38;;;7.76;67.73
6433;BME280;3249;42.690;23.260;2024-03-25T11:25:14;93403.44;;;7.45;76.94
6433;BME280;3249;42.690;23.260;2024-03-25T11:27:44;93392.50;;;7.38;82.54
6433;BME280;3249;42.690;23.260;2024-03-25T11:30:12;93390.47;;;7.40;82.15
6433;BME280;3249;42.690;23.260;2024-03-25T11:32:46;93384.84;;;7.20;77.41
6433;BME280;3249;42.690;23.260;2024-03-25T11:35:13;93394.91;;;7.04;78.62
6433;BME280;3249;42.690;23.260;2024-03-25T11:37:41;93395.25;;;7.07;82.93
6433;BME280;3249;42.690;23.260;2024-03-25T11:40:08;93405.16;;;7.33;83.97
6433;BME280;3249;42.690;23.260;2024-03-25T11:42:37;93404.47;;;7.26;77.72
6433;BME280;3249;42.690;23.260;2024-03-25T11:45:09;93387.56;;;7.25;77.57
6433;BME280;3249;42.690;23.260;2024-03-25T11:47:40;93376.66;;;7.30;77.13
6433;BME280;3249;42.690;23.260;2024-03-25T11:50:09;93396.28;;;7.36;77.80
6433;BME280;3249;42.690;23.260;2024-03-25T11:52:35;93399.28;;;7.44;80.92
6433;BME280;3249;42.690;23.260;2024-03-25T11:55:02;93405.00;;;7.58;77.42
6433;BME280;3249;42.690;23.260;2024-03-25T11:57:29;93408.16;;;7.71;71.82
6433;BME280;3249;42.690;23.260;2024-03-25T11:59:57;93367.13;;;7.48;65.87
6433;BME280;3249;42.690;23.260;2024-03-25T12:02:27;93400.38;;;7.78;64.21
6433;BME280;3249;42.690;23.260;2024-03-25T12:04:54;93414.75;;;7.90;64.76
6433;BME280;3249;42.690;23.260;2024-03-25T12:07:21;93427.31;;;7.69;62.12
6433;BME280;3249;42.690;23.260;2024-03-25T12:09:47;93414.38;;;7.64;65.49
6433;BME280;3249;42.690;23.260;2024-03-25T12:12:28;93416.53;;;7.78;68.09
6433;BME280;3249;42.690;23.260;2024-03-25T12:14:56;93384.31;;;7.59;62.91
6433;BME280;3249;42.690;23.260;2024-03-25T12:17:29;93415.50;;;7.79;65.22
6433;BME280;3249;42.690;23.260;2024-03-25T12:19:59;93398.59;;;7.78;62.22
6433;BME280;3249;42.690;23.260;2024-03-25T12:22:27;93413.22;;;7.89;62.20
6433;BME280;3249;42.690;23.260;2024-03-25T12:24:57;93402.38;;;7.87;69.92
6433;BME280;3249;42.690;23.260;2024-03-25T12:27:25;93383.22;;;7.90;65.03
6433;BME280;3249;42.690;23.260;2024-03-25T12:29:58;93375.56;;;8.01;61.07
6433;BME280;3249;42.690;23.260;2024-03-25T12:32:36;93391.72;;;8.13;60.36
6433;BME280;3249;42.690;23.260;2024-03-25T12:35:03;93376.22;;;8.08;57.51
6433;BME280;3249;42.690;23.260;2024-03-25T12:37:31;93404.69;;;8.41;57.07
6433;BME280;3249;42.690;23.260;2024-03-25T12:39:57;93402.66;;;8.43;57.95
6433;BME280;3249;42.690;23.260;2024-03-25T12:42:24;93406.75;;;8.67;54.28
6433;BME280;3249;42.690;23.260;2024-03-25T12:44:51;93414.09;;;8.75;53.42
6433;BME280;3249;42.690;23.260;2024-03-25T12:47:18;93422.34;;;8.89;52.19
6433;BME280;3249;42.690;23.260;2024-03-25T12:49:48;93425.34;;;8.97;49.39
6433;BME280;3249;42.690;23.260;2024-03-25T12:52:14;93430.84;;;8.78;48.88
6433;BME280;3249;42.690;23.260;2024-03-25T12:54:41;93425.38;;;8.74;50.14
6433;BME280;3249;42.690;23.260;2024-03-25T12:57:08;93429.31;;;8.65;53.08
6433;BME280;3249;42.690;23.260;2024-03-25T12:59:34;93424.84;;;8.61;52.33
6433;BME280;3249;42.690;23.260;2024-03-25T13:02:01;93425.63;;;8.61;53.70
6433;BME280;3249;42.690;23.260;2024-03-25T13:04:28;93424.28;;;8.70;54.54
6433;BME280;3249;42.690;23.260;2024-03-25T13:06:57;93427.38;;;8.84;53.85
6433;BME280;3249;42.690;23.260;2024-03-25T13:09:24;93428.94;;;8.85;53.48
6433;BME280;3249;42.690;23.260;2024-03-25T13:11:53;93409.56;;;8.66;50.56
6433;BME280;3249;42.690;23.260;2024-03-25T13:14:19;93432.72;;;8.82;49.17
6433;BME280;3249;42.690;23.260;2024-03-25T13:16:47;93434.84;;;8.74;49.66